Time;durP1;ratioP1;P1;durP2;ratioP2;P2;SDS_P1;SDS_P2;PMS_P1;PMS_P2;Temp;Humidity;BMP_temperature;BMP_pressure;BME280_temperature;BME280_humidity;BME280_pressure;Samples;Min_cycle;Max_cycle;Signal;HPM_P1;HPM_P2
2022/09/11 00:01:12;;;;;;;6.10;5.40;;;17.60;99.90;;;;;;5119307;27;20295;-68
2022/09/11 00:03:39;;;;;;;4.80;4.40;;;17.50;99.90;;;;;;5120446;27;20248;-68
2022/09/11 00:06:11;;;;;;;5.07;4.57;;;17.50;99.90;;;;;;5122268;27;20202;-68
2022/09/11 00:08:39;;;;;;;3.97;3.60;;;17.50;99.90;;;;;;5120917;27;20198;-68
2022/09/11 00:11:19;;;;;;;4.63;4.20;;;17.40;99.90;;;;;;5116985;27;20271;-68
2022/09/11 00:13:49;;;;;;;5.73;4.70;;;17.40;99.90;;;;;;5122121;27;20189;-68
2022/09/11 00:16:21;;;;;;;4.60;4.20;;;17.40;99.90;;;;;;5124782;27;20193;-68
2022/09/11 00:18:48;;;;;;;5.77;4.30;;;17.40;99.90;;;;;;5122183;27;20286;-69
2022/09/11 00:21:25;;;;;;;4.30;4.00;;;17.30;99.90;;;;;;5118308;27;20205;-68
2022/09/11 00:23:52;;;;;;;5.73;4.23;;;17.30;99.90;;;;;;5121506;27;20331;-69
2022/09/11 00:26:26;;;;;;;4.93;4.53;;;17.30;99.90;;;;;;5117956;27;20202;-70
2022/09/11 00:28:54;;;;;;;4.80;3.77;;;17.30;99.90;;;;;;5130850;27;20192;-68
2022/09/11 00:31:28;;;;;;;4.20;3.90;;;17.30;99.90;;;;;;5130854;27;20308;-70
2022/09/11 00:33:55;;;;;;;4.20;3.90;;;17.20;99.90;;;;;;5119370;27;20211;-70
2022/09/11 00:36:26;;;;;;;4.17;3.87;;;17.20;99.90;;;;;;5131245;27;20206;-70
2022/09/11 00:38:53;;;;;;;3.93;3.57;;;17.10;99.90;;;;;;5124394;27;20198;-69
2022/09/11 00:41:27;;;;;;;5.20;3.97;;;17.10;99.90;;;;;;5110236;28;20619;-69
2022/09/11 00:43:58;;;;;;;3.93;3.53;;;17.10;99.90;;;;;;5128431;27;20237;-69
2022/09/11 00:46:31;;;;;;;3.30;3.10;;;17.10;99.90;;;;;;5129376;27;20200;-70
2022/09/11 00:48:59;;;;;;;3.50;3.20;;;17.00;99.90;;;;;;5131039;27;20286;-69
2022/09/11 00:51:32;;;;;;;3.53;3.30;;;17.10;99.90;;;;;;5130216;27;20674;-69
2022/09/11 00:54:00;;;;;;;3.40;3.20;;;17.00;99.90;;;;;;5126859;27;20637;-69
2022/09/11 00:56:31;;;;;;;3.40;3.10;;;17.10;99.90;;;;;;5109942;27;21125;-69
2022/09/11 00:58:59;;;;;;;3.13;2.77;;;17.10;99.90;;;;;;5109976;28;20198;-69
2022/09/11 01:01:26;;;;;;;3.67;2.87;;;17.10;99.90;;;;;;5109870;28;20248;-69
2022/09/11 01:03:54;;;;;;;3.80;3.40;;;17.00;99.90;;;;;;5110221;28;20229;-69
2022/09/11 01:06:21;;;;;;;3.50;2.73;;;17.00;99.90;;;;;;5118850;27;20225;-69
2022/09/11 01:08:47;;;;;;;3.07;2.87;;;17.00;99.90;;;;;;5130508;27;20575;-69
2022/09/11 01:11:44;;;;;;;3.40;3.07;;;17.00;99.90;;;;;;5130692;27;20220;-69
2022/09/11 01:14:22;;;;;;;3.10;2.90;;;17.00;99.90;;;;;;5124096;27;20202;-69
2022/09/11 01:16:56;;;;;;;3.13;2.93;;;17.00;99.90;;;;;;5109801;28;20280;-69
2022/09/11 01:19:37;;;;;;;3.40;3.00;;;16.90;99.90;;;;;;5110016;27;20196;-69
2022/09/11 01:22:30;;;;;;;3.77;3.40;;;16.90;99.90;;;;;;5129117;27;20201;-69
2022/09/11 01:25:07;;;;;;;3.43;3.10;;;16.90;99.90;;;;;;5130131;27;20286;-69
2022/09/11 01:27:45;;;;;;;3.40;3.20;;;16.90;99.90;;;;;;5114128;27;20190;-69
2022/09/11 01:30:15;;;;;;;3.27;2.97;;;16.90;99.90;;;;;;5117887;27;20198;-69
2022/09/11 01:32:55;;;;;;;3.20;3.00;;;16.90;99.90;;;;;;5129772;27;20303;-69
2022/09/11 01:35:31;;;;;;;3.17;2.97;;;16.90;99.90;;;;;;5126575;27;20214;-68
2022/09/11 01:38:02;;;;;;;3.20;2.90;;;16.90;99.90;;;;;;5109303;28;20641;-68
2022/09/11 01:40:35;;;;;;;3.30;3.00;;;16.90;99.90;;;;;;5109114;28;20205;-68
2022/09/11 01:43:08;;;;;;;3.43;3.17;;;16.90;99.90;;;;;;5108419;28;20782;-68
2022/09/11 01:45:36;;;;;;;5.60;3.10;;;16.90;99.90;;;;;;5121437;27;21148;-69
2022/09/11 01:48:04;;;;;;;5.93;3.33;;;16.80;99.90;;;;;;5109233;28;20202;-69
2022/09/11 01:50:33;;;;;;;3.60;3.30;;;16.80;99.90;;;;;;5108869;28;20203;-69
2022/09/11 01:53:04;;;;;;;3.00;2.80;;;16.80;99.90;;;;;;5108987;28;20202;-69
2022/09/11 01:55:36;;;;;;;3.57;3.27;;;16.80;99.90;;;;;;5127566;27;20666;-69
2022/09/11 01:58:08;;;;;;;3.60;3.30;;;16.80;99.90;;;;;;5124167;27;20225;-68
2022/09/11 02:00:37;;;;;;;3.70;3.40;;;16.80;99.90;;;;;;5109614;27;20190;-68
2022/09/11 02:03:09;;;;;;;3.53;3.30;;;16.80;99.90;;;;;;5108813;28;20253;-69
2022/09/11 02:05:42;;;;;;;3.60;3.23;;;16.70;99.90;;;;;;5108693;28;20194;-68
2022/09/11 02:08:15;;;;;;;3.57;3.27;;;16.70;99.90;;;;;;5118359;27;20292;-70
2022/09/11 02:10:46;;;;;;;4.97;3.30;;;16.70;99.90;;;;;;5118031;27;20212;-69
2022/09/11 02:13:19;;;;;;;3.13;2.90;;;16.70;99.90;;;;;;5108552;28;20291;-69
2022/09/11 02:15:50;;;;;;;3.30;3.10;;;16.70;99.90;;;;;;5108379;28;20202;-69
2022/09/11 02:18:23;;;;;;;3.67;3.37;;;16.60;99.90;;;;;;5127762;27;20307;-69
2022/09/11 02:20:51;;;;;;;3.40;3.20;;;16.60;99.90;;;;;;5129091;27;20205;-69
2022/09/11 02:23:18;;;;;;;3.57;3.27;;;16.60;99.90;;;;;;5128170;27;20228;-68
2022/09/11 02:25:47;;;;;;;3.60;3.40;;;16.60;99.90;;;;;;5111136;27;20240;-68
2022/09/11 02:28:15;;;;;;;3.87;3.43;;;16.60;99.90;;;;;;5128846;27;20205;-69
2022/09/11 02:30:43;;;;;;;3.60;3.30;;;16.60;99.90;;;;;;5128030;27;20598;-69
2022/09/11 02:33:26;;;;;;;5.33;4.00;;;16.60;99.90;;;;;;5128470;27;20213;-68
2022/09/11 02:35:58;;;;;;;4.77;4.37;;;16.60;99.90;;;;;;5128058;27;20197;-69
2022/09/11 02:38:32;;;;;;;4.20;3.90;;;16.60;99.90;;;;;;5128539;27;20194;-68
2022/09/11 02:41:07;;;;;;;4.47;4.17;;;16.60;99.90;;;;;;5128523;27;20190;-68
2022/09/11 02:43:46;;;;;;;4.00;3.70;;;16.50;99.90;;;;;;5127930;27;21084;-69
2022/09/11 02:46:40;;;;;;;3.87;3.67;;;16.50;99.90;;;;;;5116542;27;20193;-68
2022/09/11 02:49:12;;;;;;;3.90;3.60;;;16.50;99.90;;;;;;5128464;27;20190;-68
2022/09/11 02:51:47;;;;;;;4.00;3.70;;;16.50;99.90;;;;;;5128454;27;20348;-68
2022/09/11 02:54:24;;;;;;;3.90;3.63;;;16.40;99.90;;;;;;5128428;27;20200;-68
2022/09/11 02:56:56;;;;;;;4.23;3.93;;;16.50;99.90;;;;;;5115018;27;20194;-69
2022/09/11 02:59:28;;;;;;;4.10;3.80;;;16.40;99.90;;;;;;5108015;28;20191;-68
2022/09/11 03:01:59;;;;;;;4.40;3.70;;;16.40;99.90;;;;;;5107548;28;20201;-69
2022/09/11 03:04:26;;;;;;;4.33;3.93;;;16.40;99.90;;;;;;5116988;27;20232;-69
2022/09/11 03:06:53;;;;;;;4.60;4.03;;;16.40;99.90;;;;;;5128723;27;20209;-69
2022/09/11 03:09:21;;;;;;;4.47;4.17;;;16.30;99.90;;;;;;5111181;27;20776;-68
2022/09/11 03:11:48;;;;;;;4.00;3.70;;;16.30;99.90;;;;;;5107608;28;20205;-68
2022/09/11 03:14:16;;;;;;;4.50;4.03;;;16.30;99.90;;;;;;5121116;27;20205;-67
2022/09/11 03:16:44;;;;;;;4.20;3.90;;;16.30;99.90;;;;;;5108702;28;20206;-67
2022/09/11 03:19:11;;;;;;;4.50;3.90;;;16.30;99.90;;;;;;5128381;27;20236;-67
2022/09/11 03:21:37;;;;;;;4.30;4.00;;;16.30;99.90;;;;;;5109094;27;20202;-67
2022/09/11 03:24:05;;;;;;;5.33;4.93;;;16.30;99.90;;;;;;5121749;28;20246;-67
2022/09/11 03:26:33;;;;;;;6.83;6.23;;;16.20;99.90;;;;;;5107669;28;20208;-68
2022/09/11 03:29:00;;;;;;;7.67;7.00;;;16.10;99.90;;;;;;5107512;28;20609;-68
2022/09/11 03:31:32;;;;;;;7.73;7.03;;;16.10;99.90;;;;;;5107305;28;20202;-69
2022/09/11 03:34:00;;;;;;;8.60;7.70;;;16.10;99.90;;;;;;5126974;28;20197;-71
2022/09/11 03:36:34;;;;;;;8.43;7.80;;;16.00;99.90;;;;;;5127835;27;20202;-71
2022/09/11 03:39:01;;;;;;;8.67;7.90;;;16.00;99.90;;;;;;5120043;27;20186;-71
2022/09/11 03:41:40;;;;;;;8.00;7.33;;;16.00;99.90;;;;;;5107233;28;20202;-71
2022/09/11 03:44:07;;;;;;;8.70;7.80;;;16.10;99.90;;;;;;5109940;28;20712;-71
2022/09/11 03:46:34;;;;;;;8.50;7.77;;;16.10;99.90;;;;;;5127722;27;20259;-71
2022/09/11 03:49:02;;;;;;;9.03;8.33;;;16.10;99.90;;;;;;5128340;27;20213;-70
2022/09/11 03:51:46;;;;;;;9.13;8.33;;;16.00;99.90;;;;;;5108981;27;20198;-70
2022/09/11 03:54:14;;;;;;;8.47;7.77;;;16.00;99.90;;;;;;5125619;27;20681;-69
2022/09/11 03:56:41;;;;;;;9.00;8.30;;;15.90;99.90;;;;;;5118883;27;20213;-69
2022/09/11 03:59:08;;;;;;;9.00;8.20;;;16.00;99.90;;;;;;5107086;28;20267;-71
2022/09/11 04:01:35;;;;;;;9.40;8.60;;;15.90;99.90;;;;;;5107043;28;20217;-71
2022/09/11 04:04:04;;;;;;;9.07;8.27;;;15.90;99.90;;;;;;5107314;28;20237;-71
2022/09/11 04:06:31;;;;;;;9.13;8.43;;;16.00;99.90;;;;;;5107576;28;20271;-70
2022/09/11 04:08:58;;;;;;;9.60;8.50;;;16.00;99.90;;;;;;5109267;27;20271;-70
2022/09/11 04:11:37;;;;;;;9.77;8.77;;;16.00;99.90;;;;;;5119326;27;20210;-70
2022/09/11 04:14:04;;;;;;;10.00;9.07;;;16.00;99.90;;;;;;5118117;27;20217;-68
2022/09/11 04:16:32;;;;;;;9.97;9.00;;;15.90;99.90;;;;;;5127355;27;20209;-68
2022/09/11 04:18:59;;;;;;;9.83;8.93;;;16.00;99.90;;;;;;5127562;27;20280;-68
2022/09/11 04:21:29;;;;;;;10.80;8.57;;;16.00;99.90;;;;;;5115446;27;20210;-68
2022/09/11 04:23:59;;;;;;;9.53;8.50;;;16.00;99.90;;;;;;5115734;27;20233;-68
2022/09/11 04:26:37;;;;;;;9.60;8.67;;;16.00;99.90;;;;;;5131094;27;20256;-68
2022/09/11 04:29:04;;;;;;;9.40;8.50;;;16.00;99.90;;;;;;5129553;27;20194;-68
2022/09/11 04:31:31;;;;;;;10.03;8.40;;;16.00;99.90;;;;;;5130194;27;20205;-68
2022/09/11 04:33:58;;;;;;;9.00;8.20;;;16.00;99.90;;;;;;5114122;27;20687;-69
2022/09/11 04:36:35;;;;;;;10.03;7.77;;;16.00;99.90;;;;;;5110459;28;20248;-68
2022/09/11 04:39:02;;;;;;;9.07;8.20;;;16.00;99.90;;;;;;5110081;28;20232;-69
2022/09/11 04:41:29;;;;;;;12.93;11.43;;;16.00;99.90;;;;;;5110077;28;20210;-69
2022/09/11 04:43:57;;;;;;;10.17;9.17;;;16.00;99.90;;;;;;5115492;27;20233;-69
2022/09/11 04:46:33;;;;;;;10.37;9.27;;;16.00;99.90;;;;;;5130657;27;20212;-68
2022/09/11 04:49:01;;;;;;;9.47;8.57;;;16.00;99.90;;;;;;5131068;27;20201;-68
2022/09/11 04:51:30;;;;;;;11.27;10.17;;;16.00;99.90;;;;;;5130759;27;20201;-69
2022/09/11 04:53:59;;;;;;;11.23;9.67;;;16.00;99.90;;;;;;5124487;27;20198;-69
2022/09/11 04:56:27;;;;;;;12.57;9.57;;;16.00;99.90;;;;;;5110224;28;20206;-69
2022/09/11 04:58:56;;;;;;;11.60;10.13;;;15.90;99.90;;;;;;5110068;27;20242;-69
2022/09/11 05:01:35;;;;;;;11.83;10.10;;;16.00;99.90;;;;;;5110018;28;20214;-69
2022/09/11 05:04:02;;;;;;;11.70;10.30;;;16.00;99.90;;;;;;5116998;27;20228;-69
2022/09/11 05:06:30;;;;;;;12.77;10.27;;;16.00;99.90;;;;;;5130370;27;20201;-69
2022/09/11 05:09:00;;;;;;;12.57;10.00;;;16.00;99.90;;;;;;5111510;27;20718;-69
2022/09/11 05:11:30;;;;;;;12.83;9.90;;;16.10;99.90;;;;;;5130169;27;20202;-69
2022/09/11 05:13:58;;;;;;;11.97;10.60;;;16.10;99.90;;;;;;5130266;27;20212;-69
2022/09/11 05:16:33;;;;;;;15.10;10.57;;;16.00;99.90;;;;;;5129911;27;20297;-69
2022/09/11 05:19:00;;;;;;;14.33;10.83;;;16.00;99.90;;;;;;5130352;27;20203;-69
2022/09/11 05:21:28;;;;;;;15.47;11.00;;;15.90;99.90;;;;;;5130318;27;20197;-68
2022/09/11 05:23:56;;;;;;;12.43;10.50;;;15.90;99.90;;;;;;5125494;27;20236;-69
2022/09/11 05:26:26;;;;;;;15.70;11.17;;;15.70;99.90;;;;;;5109218;27;20217;-69
2022/09/11 05:28:55;;;;;;;16.83;11.57;;;15.80;99.90;;;;;;5123072;27;20225;-69
2022/09/11 05:31:31;;;;;;;15.53;11.17;;;15.80;99.90;;;;;;5129215;27;20205;-69
2022/09/11 05:33:59;;;;;;;15.13;11.17;;;15.80;99.90;;;;;;5119506;27;20210;-69
2022/09/11 05:36:50;;;;;;;16.10;12.57;;;15.80;99.90;;;;;;5109210;28;20198;-69
2022/09/11 05:39:17;;;;;;;15.00;11.20;;;15.80;99.90;;;;;;5109247;28;20186;-69
2022/09/11 05:41:44;;;;;;;19.03;12.63;;;15.90;99.90;;;;;;5109886;27;20601;-69
2022/09/11 05:44:12;;;;;;;18.33;13.57;;;15.90;99.90;;;;;;5108407;27;20745;-69
2022/09/11 05:46:39;;;;;;;19.93;13.90;;;15.90;99.90;;;;;;5108940;28;20201;-69
2022/09/11 05:49:05;;;;;;;18.07;13.33;;;16.00;99.90;;;;;;5110822;27;20204;-69
2022/09/11 05:51:34;;;;;;;16.43;12.57;;;16.10;99.90;;;;;;5108723;27;20863;-69
2022/09/11 05:54:01;;;;;;;19.60;14.63;;;16.20;99.90;;;;;;5125563;27;20263;-69
2022/09/11 05:56:28;;;;;;;18.67;13.47;;;16.20;99.90;;;;;;5129316;27;20198;-68
2022/09/11 05:58:55;;;;;;;17.10;12.80;;;16.20;99.90;;;;;;5129565;27;20221;-68
2022/09/11 06:01:32;;;;;;;17.30;13.23;;;16.20;99.90;;;;;;5128987;27;20205;-68
2022/09/11 06:03:58;;;;;;;19.17;14.37;;;16.30;99.90;;;;;;5110076;27;20240;-68
2022/09/11 06:06:28;;;;;;;22.00;14.53;;;16.20;99.90;;;;;;5128214;27;20675;-69
2022/09/11 06:08:55;;;;;;;21.97;14.90;;;16.30;99.90;;;;;;5129151;27;20205;-69
2022/09/11 06:11:22;;;;;;;17.57;14.57;;;16.30;99.90;;;;;;5128987;27;20205;-69
2022/09/11 06:13:49;;;;;;;18.43;14.80;;;16.30;99.90;;;;;;5123985;27;20198;-69
2022/09/11 06:16:24;;;;;;;22.60;15.17;;;16.30;99.90;;;;;;5108048;28;20214;-69
2022/09/11 06:18:53;;;;;;;20.73;16.13;;;16.40;99.90;;;;;;5108352;28;20235;-69
2022/09/11 06:21:28;;;;;;;20.83;15.40;;;16.40;99.90;;;;;;5108700;28;20205;-69
2022/09/11 06:23:54;;;;;;;20.80;14.60;;;16.40;99.90;;;;;;5108482;28;20317;-69
2022/09/11 06:26:35;;;;;;;19.93;14.97;;;16.50;99.90;;;;;;5116843;27;20197;-69
2022/09/11 06:29:02;;;;;;;22.97;14.77;;;16.50;99.90;;;;;;5128815;27;20248;-68
2022/09/11 06:31:28;;;;;;;19.83;14.63;;;16.50;99.90;;;;;;5128713;27;20216;-67
2022/09/11 06:33:56;;;;;;;19.67;14.23;;;16.50;99.90;;;;;;5128727;27;20296;-69
2022/09/11 06:36:25;;;;;;;20.03;14.30;;;16.50;99.90;;;;;;5128530;27;20215;-69
2022/09/11 06:38:53;;;;;;;18.87;15.03;;;16.50;99.90;;;;;;5126908;27;20262;-69
2022/09/11 06:41:21;;;;;;;18.87;14.77;;;16.50;99.90;;;;;;5112055;27;20233;-69
2022/09/11 06:43:48;;;;;;;18.50;14.53;;;16.60;99.90;;;;;;5106612;28;20607;-69
2022/09/11 06:46:27;;;;;;;17.03;13.80;;;16.60;99.90;;;;;;5107840;28;20202;-68
2022/09/11 06:48:56;;;;;;;18.13;14.23;;;16.60;99.90;;;;;;5113027;27;20568;-68
2022/09/11 06:51:23;;;;;;;17.33;13.67;;;16.60;99.90;;;;;;5127481;27;20804;-68
2022/09/11 06:53:56;;;;;;;14.90;13.37;;;16.60;99.90;;;;;;5128569;27;20213;-68
2022/09/11 06:56:24;;;;;;;17.77;13.90;;;16.70;99.90;;;;;;5128545;27;20196;-68
2022/09/11 06:58:51;;;;;;;16.90;13.83;;;16.70;99.90;;;;;;5127965;27;20205;-68
2022/09/11 07:01:35;;;;;;;17.60;13.70;;;16.80;99.90;;;;;;5110193;27;20820;-68
2022/09/11 07:04:04;;;;;;;14.60;12.77;;;16.80;99.90;;;;;;5108883;28;20299;-68
2022/09/11 07:06:52;;;;;;;15.93;13.30;;;16.90;99.90;;;;;;5107733;28;20208;-68
2022/09/11 07:09:19;;;;;;;16.00;13.87;;;16.90;99.90;;;;;;5108087;28;20540;-67
2022/09/11 07:11:45;;;;;;;15.83;13.23;;;16.90;99.90;;;;;;5110878;28;20196;-67
2022/09/11 07:14:12;;;;;;;15.17;13.30;;;16.90;99.90;;;;;;5127584;27;20329;-67
2022/09/11 07:16:39;;;;;;;16.33;13.20;;;16.80;99.90;;;;;;5127985;27;20231;-68
2022/09/11 07:19:08;;;;;;;14.97;12.70;;;16.80;99.90;;;;;;5128370;27;20205;-68
2022/09/11 07:21:36;;;;;;;15.73;12.67;;;16.80;99.90;;;;;;5128179;27;20213;-69
2022/09/11 07:24:03;;;;;;;15.80;13.37;;;16.90;99.90;;;;;;5128131;27;20277;-69
2022/09/11 07:26:30;;;;;;;15.23;13.10;;;16.90;99.90;;;;;;5127345;27;20321;-69
2022/09/11 07:28:58;;;;;;;15.07;13.37;;;16.90;99.90;;;;;;5128138;27;20222;-68
2022/09/11 07:31:49;;;;;;;15.60;13.30;;;16.90;99.90;;;;;;5127841;27;20205;-70
2022/09/11 07:34:18;;;;;;;14.77;12.77;;;17.00;99.90;;;;;;5128040;27;20213;-68
2022/09/11 07:36:45;;;;;;;14.73;13.17;;;17.00;99.90;;;;;;5127864;27;20208;-69
2022/09/11 07:39:11;;;;;;;15.33;12.77;;;17.00;99.90;;;;;;5117865;27;20549;-69
2022/09/11 07:41:38;;;;;;;16.73;13.87;;;17.00;99.90;;;;;;5107580;28;20264;-69
2022/09/11 07:44:06;;;;;;;14.63;13.13;;;17.10;99.90;;;;;;5116658;28;20237;-69
2022/09/11 07:46:34;;;;;;;17.43;14.37;;;17.10;99.90;;;;;;5115858;27;20213;-69
2022/09/11 07:49:02;;;;;;;17.57;13.57;;;17.10;99.90;;;;;;5121623;27;20190;-69
2022/09/11 07:51:30;;;;;;;13.67;12.23;;;17.10;99.90;;;;;;5115477;28;20202;-70
2022/09/11 07:53:58;;;;;;;15.20;12.90;;;17.20;99.90;;;;;;5118080;27;20212;-68
2022/09/11 07:56:26;;;;;;;17.97;13.33;;;17.20;99.90;;;;;;5117400;27;20238;-68
2022/09/11 07:58:54;;;;;;;15.57;13.47;;;17.30;99.90;;;;;;5122600;27;20214;-68
2022/09/11 08:01:28;;;;;;;16.63;12.90;;;17.40;99.90;;;;;;5117059;27;20197;-68
2022/09/11 08:03:57;;;;;;;17.10;12.13;;;17.50;99.90;;;;;;5123039;27;20258;-69
2022/09/11 08:06:25;;;;;;;15.73;12.33;;;17.50;99.90;;;;;;5114168;27;20202;-68
2022/09/11 08:08:55;;;;;;;12.73;11.47;;;17.60;99.90;;;;;;5119747;27;20247;-69
2022/09/11 08:11:23;;;;;;;12.60;11.23;;;17.60;99.90;;;;;;5129077;27;20225;-68
2022/09/11 08:13:51;;;;;;;14.67;11.60;;;17.60;99.90;;;;;;5128298;27;20201;-68
2022/09/11 08:16:28;;;;;;;14.03;11.57;;;17.70;99.90;;;;;;5123829;27;20270;-69
2022/09/11 08:18:55;;;;;;;12.87;11.50;;;17.70;99.90;;;;;;5108738;28;20213;-69
2022/09/11 08:21:25;;;;;;;12.60;11.30;;;17.70;99.90;;;;;;5108576;28;20745;-70
2022/09/11 08:23:51;;;;;;;13.37;12.03;;;17.80;99.90;;;;;;5113114;27;20209;-69
2022/09/11 08:26:36;;;;;;;13.70;11.73;;;17.80;99.90;;;;;;5123667;27;20228;-68
2022/09/11 08:29:04;;;;;;;14.53;11.27;;;17.80;99.90;;;;;;5108777;28;20198;-69
2022/09/11 08:31:32;;;;;;;13.53;11.13;;;17.90;99.90;;;;;;5108634;27;20256;-69
2022/09/11 08:33:59;;;;;;;18.07;12.73;;;17.90;99.90;;;;;;5128341;27;20236;-69
2022/09/11 08:36:34;;;;;;;12.63;11.03;;;17.90;99.90;;;;;;5124643;27;20214;-69
2022/09/11 08:39:02;;;;;;;11.47;10.37;;;18.00;99.90;;;;;;5107710;27;20201;-69
2022/09/11 08:41:40;;;;;;;13.77;12.10;;;18.10;99.90;;;;;;5118766;27;20272;-68
2022/09/11 08:44:16;;;;;;;12.47;11.23;;;18.20;99.90;;;;;;5126286;27;20236;-68
2022/09/11 08:46:45;;;;;;;14.93;11.97;;;18.30;99.90;;;;;;5128673;27;20292;-69
2022/09/11 08:49:19;;;;;;;13.20;10.93;;;18.30;99.90;;;;;;5128020;27;20578;-68
2022/09/11 08:51:47;;;;;;;14.50;11.93;;;18.30;99.90;;;;;;5125016;27;20300;-68
2022/09/11 08:54:23;;;;;;;13.10;11.80;;;18.30;99.90;;;;;;5110985;27;20202;-68
2022/09/11 08:56:52;;;;;;;11.97;10.77;;;18.40;99.90;;;;;;5128971;27;20204;-68
2022/09/11 08:59:28;;;;;;;13.20;10.80;;;18.50;99.90;;;;;;5118340;27;20205;-67
2022/09/11 09:02:03;;;;;;;11.47;9.93;;;18.60;99.90;;;;;;5111447;27;20652;-67
2022/09/11 09:04:44;;;;;;;14.57;12.40;;;18.60;99.90;;;;;;5111269;27;20190;-67
2022/09/11 09:07:24;;;;;;;15.70;11.73;;;18.60;99.90;;;;;;5116472;27;20255;-67
2022/09/11 09:10:00;;;;;;;13.53;12.13;;;18.50;99.90;;;;;;5118145;27;20194;-68
2022/09/11 09:12:38;;;;;;;13.43;10.87;;;18.50;99.90;;;;;;5113865;27;20194;-68
2022/09/11 09:15:31;;;;;;;13.43;11.50;;;18.50;99.90;;;;;;5107652;28;20794;-68
2022/09/11 09:18:02;;;;;;;12.63;10.83;;;18.40;99.90;;;;;;5106513;28;20255;-68
2022/09/11 09:20:32;;;;;;;12.20;10.97;;;18.50;99.90;;;;;;5107047;28;20704;-68
2022/09/11 09:23:02;;;;;;;11.63;10.47;;;18.60;99.90;;;;;;5116907;27;20225;-68
2022/09/11 09:25:30;;;;;;;12.20;10.93;;;18.50;99.90;;;;;;5127765;27;20282;-68
2022/09/11 09:28:06;;;;;;;11.07;9.97;;;18.60;99.90;;;;;;5127145;27;20206;-72
2022/09/11 09:30:41;;;;;;;12.03;10.63;;;18.70;99.90;;;;;;5127260;27;20567;-71
2022/09/11 09:33:29;;;;;;;10.50;9.00;;;18.90;99.90;;;;;;5127958;27;20213;-69
2022/09/11 09:35:57;;;;;;;10.87;9.40;;;19.00;99.90;;;;;;5111280;27;20220;-68
2022/09/11 09:38:28;;;;;;;10.60;9.60;;;19.10;99.90;;;;;;5106608;28;20688;-70
2022/09/11 09:41:06;;;;;;;11.97;10.57;;;19.10;99.90;;;;;;5107144;28;20651;-68
2022/09/11 09:43:44;;;;;;;13.13;11.13;;;18.90;99.90;;;;;;5106568;28;20237;-68
2022/09/11 09:46:31;;;;;;;12.63;11.27;;;18.70;99.90;;;;;;5108305;27;20226;-68
2022/09/11 09:48:58;;;;;;;12.17;10.90;;;18.60;99.90;;;;;;5115052;27;20273;-68
2022/09/11 09:51:35;;;;;;;11.43;10.33;;;18.50;99.90;;;;;;5118544;27;20318;-68
2022/09/11 09:54:02;;;;;;;10.33;9.20;;;18.60;99.90;;;;;;5116996;27;20201;-69
2022/09/11 09:56:31;;;;;;;8.60;7.70;;;18.80;99.90;;;;;;5121333;27;20682;-69
2022/09/11 09:59:03;;;;;;;8.53;7.83;;;18.90;99.90;;;;;;5126862;27;20690;-69
2022/09/11 10:01:47;;;;;;;9.10;8.10;;;19.10;99.90;;;;;;5122999;27;20652;-69
2022/09/11 10:04:17;;;;;;;9.90;8.37;;;19.20;99.90;;;;;;5117315;27;20194;-69
2022/09/11 10:06:46;;;;;;;9.33;8.43;;;19.10;99.90;;;;;;5119726;27;20213;-72
2022/09/11 10:09:24;;;;;;;9.90;8.90;;;19.10;99.90;;;;;;5114440;27;20250;-71
2022/09/11 10:12:01;;;;;;;9.97;8.83;;;19.10;99.90;;;;;;5107486;27;20201;-69
2022/09/11 10:14:31;;;;;;;9.80;8.87;;;19.20;99.90;;;;;;5108825;27;20285;-69
2022/09/11 10:17:00;;;;;;;9.70;8.77;;;19.20;99.90;;;;;;5112465;27;20206;-70
2022/09/11 10:19:39;;;;;;;9.40;7.33;;;19.20;99.90;;;;;;5121834;27;20671;-70
2022/09/11 10:22:28;;;;;;;9.43;8.03;;;19.40;99.90;;;;;;5105933;28;20826;-70
2022/09/11 10:25:12;;;;;;;8.47;7.67;;;19.50;99.90;;;;;;5117183;27;20620;-69
2022/09/11 10:27:45;;;;;;;8.47;7.67;;;19.60;99.90;;;;;;5105672;27;20280;-69
2022/09/11 10:30:33;;;;;;;8.90;8.10;;;19.60;99.90;;;;;;5106231;28;20256;-70
2022/09/11 10:33:03;;;;;;;8.60;7.70;;;19.60;99.90;;;;;;5105829;28;20214;-70
2022/09/11 10:35:32;;;;;;;11.90;8.83;;;19.50;99.90;;;;;;5113439;27;20808;-70
2022/09/11 10:38:08;;;;;;;9.67;8.33;;;19.40;99.90;;;;;;5118679;27;20198;-70
2022/09/11 10:40:37;;;;;;;11.97;9.23;;;19.20;99.90;;;;;;5111332;27;20205;-70
2022/09/11 10:43:04;;;;;;;8.97;8.17;;;19.20;99.90;;;;;;5112624;27;20228;-70
2022/09/11 10:45:33;;;;;;;8.60;7.80;;;19.30;99.90;;;;;;5120638;27;20530;-70
2022/09/11 10:48:16;;;;;;;8.73;7.63;;;19.50;99.90;;;;;;5110522;27;20761;-71
2022/09/11 10:50:43;;;;;;;7.77;6.97;;;19.80;99.90;;;;;;5119432;27;20285;-71
2022/09/11 10:53:17;;;;;;;6.23;5.60;;;20.10;99.90;;;;;;5118437;27;20198;-71
2022/09/11 10:55:51;;;;;;;8.00;7.40;;;20.20;99.90;;;;;;5117350;27;20565;-70
2022/09/11 10:58:22;;;;;;;6.67;5.70;;;20.40;99.90;;;;;;5108096;27;20703;-70
2022/09/11 11:00:50;;;;;;;6.27;5.67;;;20.60;99.90;;;;;;5106008;28;20198;-70
2022/09/11 11:03:21;;;;;;;6.57;6.00;;;20.70;99.90;;;;;;5105760;28;20206;-69
2022/09/11 11:06:02;;;;;;;6.47;5.97;;;20.70;99.90;;;;;;5114129;27;20229;-70
2022/09/11 11:08:49;;;;;;;6.93;6.33;;;20.50;99.90;;;;;;5125708;27;20724;-69
2022/09/11 11:11:43;;;;;;;6.87;6.27;;;20.30;99.90;;;;;;5106786;28;20644;-69
2022/09/11 11:14:31;;;;;;;7.10;6.40;;;20.10;99.90;;;;;;5107243;28;20190;-69
2022/09/11 11:17:05;;;;;;;6.67;6.17;;;20.00;99.90;;;;;;5106789;28;20339;-69
2022/09/11 11:19:46;;;;;;;6.60;6.10;;;20.00;99.90;;;;;;5125885;27;20193;-69
2022/09/11 11:22:26;;;;;;;6.07;5.57;;;19.90;99.90;;;;;;5121171;27;20190;-70
2022/09/11 11:25:02;;;;;;;5.90;5.50;;;19.90;99.90;;;;;;5117105;27;20197;-69
2022/09/11 11:27:54;;;;;;;5.90;5.40;;;19.90;99.90;;;;;;5120757;27;20198;-69
2022/09/11 11:30:23;;;;;;;5.90;5.50;;;19.90;99.90;;;;;;5111381;27;20279;-69
2022/09/11 11:33:16;;;;;;;5.73;5.23;;;19.80;99.90;;;;;;5117323;27;20666;-69
2022/09/11 11:35:51;;;;;;;5.47;5.07;;;19.70;99.90;;;;;;5129883;27;20265;-69
2022/09/11 11:38:26;;;;;;;5.40;5.00;;;19.70;99.90;;;;;;5114259;27;20229;-69
2022/09/11 11:41:00;;;;;;;6.00;5.53;;;19.60;99.90;;;;;;5126116;27;20205;-69
2022/09/11 11:43:29;;;;;;;5.77;5.27;;;19.60;99.90;;;;;;5113656;27;20324;-69
2022/09/11 11:46:01;;;;;;;5.93;5.43;;;19.70;99.90;;;;;;5117434;27;20241;-69
2022/09/11 11:48:37;;;;;;;5.27;4.87;;;19.70;99.90;;;;;;5109289;27;20559;-69
2022/09/11 11:53:58;;;;;;;5.20;4.80;;;20.10;99.90;;;;;;5124386;27;20714;-69
2022/09/11 11:56:34;;;;;;;4.30;4.00;;;20.30;99.90;;;;;;5107978;27;20641;-69
2022/09/11 11:59:07;;;;;;;5.13;4.77;;;20.40;99.90;;;;;;5118537;27;20193;-70
2022/09/11 12:01:39;;;;;;;5.00;4.57;;;20.50;99.90;;;;;;5116363;27;20718;-69
2022/09/11 12:04:20;;;;;;;5.10;4.70;;;20.50;99.90;;;;;;5108953;27;20191;-69
2022/09/11 12:06:47;;;;;;;5.10;4.70;;;20.50;99.90;;;;;;5108724;27;20221;-70
2022/09/11 12:09:16;;;;;;;5.17;4.67;;;20.40;99.90;;;;;;5120265;27;20969;-69
2022/09/11 12:11:46;;;;;;;5.10;4.60;;;20.40;99.90;;;;;;5108800;28;20562;-70
2022/09/11 12:14:26;;;;;;;5.87;4.70;;;20.30;99.90;;;;;;5110161;27;20573;-69
2022/09/11 12:16:55;;;;;;;4.80;4.50;;;20.30;99.90;;;;;;5109006;27;20290;-69
2022/09/11 12:19:25;;;;;;;4.80;4.43;;;20.20;99.90;;;;;;5127710;27;20202;-69
2022/09/11 12:22:31;;;;;;;5.77;4.67;;;20.00;99.90;;;;;;5128073;27;20225;-69
2022/09/11 12:24:58;;;;;;;4.67;4.37;;;20.00;99.90;;;;;;5119429;27;20194;-69
2022/09/11 12:27:51;;;;;;;6.23;4.40;;;19.90;99.90;;;;;;5112678;27;20240;-69
2022/09/11 12:30:26;;;;;;;4.70;4.40;;;20.00;99.90;;;;;;5108439;28;20820;-69
2022/09/11 12:32:55;;;;;;;6.00;4.60;;;20.00;99.90;;;;;;5119511;27;20201;-69
2022/09/11 12:35:29;;;;;;;4.60;4.30;;;20.10;99.90;;;;;;5127626;27;20198;-69
2022/09/11 12:38:00;;;;;;;5.13;4.67;;;20.10;99.90;;;;;;5124398;27;20216;-69
2022/09/11 12:40:36;;;;;;;5.37;4.97;;;20.10;99.90;;;;;;5116584;27;20194;-69
2022/09/11 12:43:27;;;;;;;5.50;5.10;;;20.00;99.90;;;;;;5119489;27;20952;-69
2022/09/11 12:45:55;;;;;;;4.80;4.40;;;19.90;99.90;;;;;;5116261;27;20222;-69
2022/09/11 12:48:25;;;;;;;4.30;4.00;;;19.80;99.90;;;;;;5108928;28;20249;-69
2022/09/11 12:50:56;;;;;;;4.93;4.53;;;19.70;99.90;;;;;;5108569;28;20217;-69
2022/09/11 12:53:27;;;;;;;5.00;4.60;;;19.60;99.90;;;;;;5122764;27;20685;-69
2022/09/11 12:55:58;;;;;;;4.77;4.43;;;19.50;99.90;;;;;;5129116;27;20236;-70
2022/09/11 12:58:30;;;;;;;5.33;5.03;;;19.50;99.90;;;;;;5110877;27;20194;-70
2022/09/11 13:01:22;;;;;;;5.43;4.93;;;19.40;99.90;;;;;;5108277;28;20640;-69
2022/09/11 13:03:55;;;;;;;5.87;5.23;;;19.50;99.90;;;;;;5108595;28;20194;-69
2022/09/11 13:06:35;;;;;;;5.40;5.00;;;19.50;99.90;;;;;;5107927;28;20225;-70